sensor_id;sensor_type;location;lat;lon;timestamp;pressure;altitude;pressure_sealevel;temperature;humidity
61478;BME280;47345;52.334;10.392;2024-03-02T00:02:25;99726.96;;;8.36;83.71
61478;BME280;47345;52.334;10.392;2024-03-02T00:04:55;99722.86;;;8.35;83.84
61478;BME280;47345;52.334;10.392;2024-03-02T00:07:26;99724.05;;;8.34;83.84
61478;BME280;47345;52.334;10.392;2024-03-02T00:09:57;99723.67;;;8.31;83.76
61478;BME280;47345;52.334;10.392;2024-03-02T00:12:27;99723.51;;;8.33;83.76
61478;BME280;47345;52.334;10.392;2024-03-02T00:14:58;99719.15;;;8.31;83.69
61478;BME280;47345;52.334;10.392;2024-03-02T00:17:31;99721.78;;;8.32;83.88
61478;BME280;47345;52.334;10.392;2024-03-02T00:20:03;99723.98;;;8.32;83.68
61478;BME280;47345;52.334;10.392;2024-03-02T00:22:36;99719.20;;;8.31;83.59
61478;BME280;47345;52.334;10.392;2024-03-02T00:25:08;99716.48;;;8.31;83.64
61478;BME280;47345;52.334;10.392;2024-03-02T00:27:39;99716.83;;;8.32;83.92
61478;BME280;47345;52.334;10.392;2024-03-02T00:30:33;99714.31;;;8.33;83.79
61478;BME280;47345;52.334;10.392;2024-03-02T00:33:11;99710.84;;;8.35;83.67
61478;BME280;47345;52.334;10.392;2024-03-02T00:35:45;99707.44;;;8.34;83.71
61478;BME280;47345;52.334;10.392;2024-03-02T00:38:15;99705.79;;;8.36;83.73
61478;BME280;47345;52.334;10.392;2024-03-02T00:40:47;99701.69;;;8.36;83.52
61478;BME280;47345;52.334;10.392;2024-03-02T00:43:47;99698.95;;;8.37;83.46
61478;BME280;47345;52.334;10.392;2024-03-02T00:46:20;99691.58;;;8.36;83.58
61478;BME280;47345;52.334;10.392;2024-03-02T00:48:54;99687.84;;;8.37;83.47
61478;BME280;47345;52.334;10.392;2024-03-02T00:51:27;99685.79;;;8.37;83.36
61478;BME280;47345;52.334;10.392;2024-03-02T00:54:00;99687.84;;;8.37;83.25
61478;BME280;47345;52.334;10.392;2024-03-02T00:56:33;99684.28;;;8.36;83.06
61478;BME280;47345;52.334;10.392;2024-03-02T00:59:05;99683.58;;;8.35;83.01
61478;BME280;47345;52.334;10.392;2024-03-02T01:01:35;99680.57;;;8.33;82.99
61478;BME280;47345;52.334;10.392;2024-03-02T01:04:06;99680.06;;;8.33;82.92
61478;BME280;47345;52.334;10.392;2024-03-02T01:06:37;99684.21;;;8.33;82.90
61478;BME280;47345;52.334;10.392;2024-03-02T01:09:08;99679.49;;;8.32;83.01
61478;BME280;47345;52.334;10.392;2024-03-02T01:11:38;99677.45;;;8.32;82.90
61478;BME280;47345;52.334;10.392;2024-03-02T01:14:09;99681.17;;;8.31;82.78
61478;BME280;47345;52.334;10.392;2024-03-02T01:16:39;99679.45;;;8.31;82.69
61478;BME280;47345;52.334;10.392;2024-03-02T01:19:10;99680.72;;;8.29;82.58
61478;BME280;47345;52.334;10.392;2024-03-02T01:21:41;99679.59;;;8.28;82.54
61478;BME280;47345;52.334;10.392;2024-03-02T01:24:11;99678.98;;;8.23;82.60
61478;BME280;47345;52.334;10.392;2024-03-02T01:26:42;99682.75;;;8.24;82.64
61478;BME280;47345;52.334;10.392;2024-03-02T01:29:13;99680.79;;;8.23;82.84
61478;BME280;47345;52.334;10.392;2024-03-02T01:31:43;99677.61;;;8.23;82.90
61478;BME280;47345;52.334;10.392;2024-03-02T01:34:14;99680.83;;;8.23;83.01
61478;BME280;47345;52.334;10.392;2024-03-02T01:36:45;99680.03;;;8.25;83.07
61478;BME280;47345;52.334;10.392;2024-03-02T01:39:16;99680.44;;;8.26;82.92
61478;BME280;47345;52.334;10.392;2024-03-02T01:41:46;99678.34;;;8.28;82.99
61478;BME280;47345;52.334;10.392;2024-03-02T01:44:16;99680.93;;;8.27;82.83
61478;BME280;47345;52.334;10.392;2024-03-02T01:46:47;99681.35;;;8.29;82.89
61478;BME280;47345;52.334;10.392;2024-03-02T01:49:18;99685.37;;;8.30;82.83
61478;BME280;47345;52.334;10.392;2024-03-02T01:51:49;99688.42;;;8.30;82.81
61478;BME280;47345;52.334;10.392;2024-03-02T01:54:19;99689.68;;;8.30;82.85
61478;BME280;47345;52.334;10.392;2024-03-02T01:56:52;99688.44;;;8.28;82.83
61478;BME280;47345;52.334;10.392;2024-03-02T01:59:23;99688.48;;;8.28;82.91
61478;BME280;47345;52.334;10.392;2024-03-02T02:01:53;99691.61;;;8.29;82.88
61478;BME280;47345;52.334;10.392;2024-03-02T02:04:24;99691.75;;;8.30;82.74
61478;BME280;47345;52.334;10.392;2024-03-02T02:06:56;99696.94;;;8.30;82.59
61478;BME280;47345;52.334;10.392;2024-03-02T02:09:27;99695.85;;;8.30;82.65
61478;BME280;47345;52.334;10.392;2024-03-02T02:11:58;99696.95;;;8.29;82.65
61478;BME280;47345;52.334;10.392;2024-03-02T02:14:29;99695.20;;;8.27;82.77
61478;BME280;47345;52.334;10.392;2024-03-02T02:16:59;99694.40;;;8.26;82.87
61478;BME280;47345;52.334;10.392;2024-03-02T02:19:30;99692.17;;;8.26;83.09
61478;BME280;47345;52.334;10.392;2024-03-02T02:22:00;99693.15;;;8.26;83.14
61478;BME280;47345;52.334;10.392;2024-03-02T02:24:30;99695.20;;;8.26;82.96
61478;BME280;47345;52.334;10.392;2024-03-02T02:27:01;99692.41;;;8.24;83.31
61478;BME280;47345;52.334;10.392;2024-03-02T02:29:32;99692.95;;;8.24;83.42
61478;BME280;47345;52.334;10.392;2024-03-02T02:32:03;99692.45;;;8.23;83.52
61478;BME280;47345;52.334;10.392;2024-03-02T02:34:33;99694.46;;;8.23;83.63
61478;BME280;47345;52.334;10.392;2024-03-02T02:37:04;99687.59;;;8.23;83.43
61478;BME280;47345;52.334;10.392;2024-03-02T02:39:34;99681.85;;;8.20;83.37
61478;BME280;47345;52.334;10.392;2024-03-02T02:42:05;99680.79;;;8.15;83.44
61478;BME280;47345;52.334;10.392;2024-03-02T02:44:36;99685.03;;;8.14;83.68
61478;BME280;47345;52.334;10.392;2024-03-02T02:47:07;99683.90;;;8.13;83.59
61478;BME280;47345;52.334;10.392;2024-03-02T02:49:37;99681.39;;;8.10;83.93
61478;BME280;47345;52.334;10.392;2024-03-02T02:52:08;99679.80;;;8.11;83.91
61478;BME280;47345;52.334;10.392;2024-03-02T02:54:39;99679.73;;;8.09;83.80
61478;BME280;47345;52.334;10.392;2024-03-02T02:57:10;99678.05;;;8.07;83.93
61478;BME280;47345;52.334;10.392;2024-03-02T02:59:40;99673.14;;;8.04;83.99
61478;BME280;47345;52.334;10.392;2024-03-02T03:02:10;99674.81;;;8.03;84.28
61478;BME280;47345;52.334;10.392;2024-03-02T03:04:42;99673.73;;;8.01;83.99
61478;BME280;47345;52.334;10.392;2024-03-02T03:07:12;99666.83;;;8.00;84.34
61478;BME280;47345;52.334;10.392;2024-03-02T03:09:43;99663.93;;;7.99;84.49
61478;BME280;47345;52.334;10.392;2024-03-02T03:12:13;99665.02;;;7.98;84.59
61478;BME280;47345;52.334;10.392;2024-03-02T03:14:44;99664.16;;;7.98;84.75
61478;BME280;47345;52.334;10.392;2024-03-02T03:17:14;99662.27;;;7.97;84.75
61478;BME280;47345;52.334;10.392;2024-03-02T03:19:46;99660.39;;;7.97;84.68
61478;BME280;47345;52.334;10.392;2024-03-02T03:22:17;99661.80;;;7.97;84.87
61478;BME280;47345;52.334;10.392;2024-03-02T03:24:47;99660.09;;;7.96;85.01
61478;BME280;47345;52.334;10.392;2024-03-02T03:27:18;99659.22;;;7.96;85.17
61478;BME280;47345;52.334;10.392;2024-03-02T03:29:49;99662.11;;;7.96;85.15
61478;BME280;47345;52.334;10.392;2024-03-02T03:32:19;99658.92;;;7.97;85.22
61478;BME280;47345;52.334;10.392;2024-03-02T03:34:50;99657.80;;;7.96;85.03
61478;BME280;47345;52.334;10.392;2024-03-02T03:37:20;99657.80;;;7.94;85.08
61478;BME280;47345;52.334;10.392;2024-03-02T03:39:51;99656.42;;;7.94;85.07
61478;BME280;47345;52.334;10.392;2024-03-02T03:42:21;99653.30;;;7.94;85.18
61478;BME280;47345;52.334;10.392;2024-03-02T03:44:52;99652.39;;;7.95;85.13
61478;BME280;47345;52.334;10.392;2024-03-02T03:47:22;99652.89;;;7.96;85.32
61478;BME280;47345;52.334;10.392;2024-03-02T03:49:53;99652.77;;;7.95;84.93
61478;BME280;47345;52.334;10.392;2024-03-02T03:52:23;99650.56;;;7.94;85.11
61478;BME280;47345;52.334;10.392;2024-03-02T03:54:54;99649.57;;;7.94;84.97
61478;BME280;47345;52.334;10.392;2024-03-02T03:57:24;99649.02;;;7.92;85.05
61478;BME280;47345;52.334;10.392;2024-03-02T03:59:55;99652.52;;;7.92;85.07
61478;BME280;47345;52.334;10.392;2024-03-02T04:02:25;99651.89;;;7.90;85.08
61478;BME280;47345;52.334;10.392;2024-03-02T04:04:56;99649.96;;;7.89;85.08
61478;BME280;47345;52.334;10.392;2024-03-02T04:07:26;99652.56;;;7.89;85.28
61478;BME280;47345;52.334;10.392;2024-03-02T04:09:57;99651.72;;;7.89;85.30
61478;BME280;47345;52.334;10.392;2024-03-02T04:12:27;99653.35;;;7.89;85.38
61478;BME280;47345;52.334;10.392;2024-03-02T04:14:58;99651.92;;;7.90;85.46
61478;BME280;47345;52.334;10.392;2024-03-02T04:17:28;99650.04;;;7.90;85.51
61478;BME280;47345;52.334;10.392;2024-03-02T04:19:59;99651.67;;;7.89;85.39
61478;BME280;47345;52.334;10.392;2024-03-02T04:22:30;99649.71;;;7.89;85.26
61478;BME280;47345;52.334;10.392;2024-03-02T04:25:00;99655.23;;;7.88;85.29
61478;BME280;47345;52.334;10.392;2024-03-02T04:27:31;99656.67;;;7.87;85.33
61478;BME280;47345;52.334;10.392;2024-03-02T04:30:03;99654.50;;;7.86;85.15
61478;BME280;47345;52.334;10.392;2024-03-02T04:32:35;99653.89;;;7.82;84.93
61478;BME280;47345;52.334;10.392;2024-03-02T04:35:08;99656.73;;;7.80;85.26
61478;BME280;47345;52.334;10.392;2024-03-02T04:37:39;99661.36;;;7.78;85.25
61478;BME280;47345;52.334;10.392;2024-03-02T04:40:11;99661.62;;;7.76;85.32
61478;BME280;47345;52.334;10.392;2024-03-02T04:42:42;99667.86;;;7.73;85.09
61478;BME280;47345;52.334;10.392;2024-03-02T04:45:13;99671.86;;;7.67;85.22
61478;BME280;47345;52.334;10.392;2024-03-02T04:47:44;99675.18;;;7.66;85.45
61478;BME280;47345;52.334;10.392;2024-03-02T04:50:18;99674.89;;;7.63;85.36
61478;BME280;47345;52.334;10.392;2024-03-02T04:52:48;99674.43;;;7.61;85.45
61478;BME280;47345;52.334;10.392;2024-03-02T04:55:19;99672.27;;;7.58;85.37
61478;BME280;47345;52.334;10.392;2024-03-02T04:58:19;99674.15;;;7.57;85.67
61478;BME280;47345;52.334;10.392;2024-03-02T05:00:50;99673.95;;;7.55;85.71
61478;BME280;47345;52.334;10.392;2024-03-02T05:03:20;99675.17;;;7.54;85.67
61478;BME280;47345;52.334;10.392;2024-03-02T05:05:51;99677.59;;;7.54;85.87
61478;BME280;47345;52.334;10.392;2024-03-02T05:08:21;99679.56;;;7.54;85.81
61478;BME280;47345;52.334;10.392;2024-03-02T05:10:51;99681.23;;;7.54;86.07
61478;BME280;47345;52.334;10.392;2024-03-02T05:13:21;99684.20;;;7.54;85.97
61478;BME280;47345;52.334;10.392;2024-03-02T05:15:52;99681.27;;;7.54;86.05
61478;BME280;47345;52.334;10.392;2024-03-02T05:18:22;99679.69;;;7.54;86.12
61478;BME280;47345;52.334;10.392;2024-03-02T05:20:53;99676.38;;;7.55;86.39
61478;BME280;47345;52.334;10.392;2024-03-02T05:23:24;99674.41;;;7.56;86.21
61478;BME280;47345;52.334;10.392;2024-03-02T05:25:54;99679.39;;;7.57;86.13
61478;BME280;47345;52.334;10.392;2024-03-02T05:28:24;99673.65;;;7.56;85.92
61478;BME280;47345;52.334;10.392;2024-03-02T05:30:55;99677.37;;;7.55;85.74
61478;BME280;47345;52.334;10.392;2024-03-02T05:33:25;99677.22;;;7.54;85.97
61478;BME280;47345;52.334;10.392;2024-03-02T05:35:56;99671.78;;;7.52;85.96
61478;BME280;47345;52.334;10.392;2024-03-02T05:38:26;99668.06;;;7.51;85.90
61478;BME280;47345;52.334;10.392;2024-03-02T05:40:56;99672.16;;;7.48;85.66
61478;BME280;47345;52.334;10.392;2024-03-02T05:43:27;99675.06;;;7.46;85.82
61478;BME280;47345;52.334;10.392;2024-03-02T05:45:57;99671.46;;;7.43;86.02
61478;BME280;47345;52.334;10.392;2024-03-02T05:48:28;99674.29;;;7.41;85.90
61478;BME280;47345;52.334;10.392;2024-03-02T05:50:59;99674.84;;;7.38;85.80
61478;BME280;47345;52.334;10.392;2024-03-02T05:53:30;99671.13;;;7.34;85.77
61478;BME280;47345;52.334;10.392;2024-03-02T05:56:00;99675.06;;;7.31;85.96
61478;BME280;47345;52.334;10.392;2024-03-02T05:58:33;99674.81;;;7.28;85.81
61478;BME280;47345;52.334;10.392;2024-03-02T06:01:19;99676.17;;;7.23;85.89
61478;BME280;47345;52.334;10.392;2024-03-02T06:03:50;99672.73;;;7.19;85.97
61478;BME280;47345;52.334;10.392;2024-03-02T06:06:20;99672.48;;;7.16;85.95
61478;BME280;47345;52.334;10.392;2024-03-02T06:08:51;99675.63;;;7.13;86.19
61478;BME280;47345;52.334;10.392;2024-03-02T06:11:22;99675.45;;;7.10;86.08
61478;BME280;47345;52.334;10.392;2024-03-02T06:13:52;99678.69;;;7.07;86.17
61478;BME280;47345;52.334;10.392;2024-03-02T06:16:23;99684.63;;;7.05;86.23
61478;BME280;47345;52.334;10.392;2024-03-02T06:18:53;99683.45;;;7.03;86.23
61478;BME280;47345;52.334;10.392;2024-03-02T06:21:27;99684.50;;;7.01;86.23
61478;BME280;47345;52.334;10.392;2024-03-02T06:23:58;99686.42;;;6.98;86.33
61478;BME280;47345;52.334;10.392;2024-03-02T06:26:28;99689.15;;;6.97;86.54
61478;BME280;47345;52.334;10.392;2024-03-02T06:29:00;99694.08;;;6.97;86.50
61478;BME280;47345;52.334;10.392;2024-03-02T06:31:32;99692.11;;;6.94;86.44
61478;BME280;47345;52.334;10.392;2024-03-02T06:34:02;99694.66;;;6.95;86.45
61478;BME280;47345;52.334;10.392;2024-03-02T06:36:34;99691.14;;;6.94;86.49
61478;BME280;47345;52.334;10.392;2024-03-02T06:39:04;99693.69;;;6.94;86.52
61478;BME280;47345;52.334;10.392;2024-03-02T06:41:35;99701.02;;;6.92;86.53
61478;BME280;47345;52.334;10.392;2024-03-02T06:44:06;99705.63;;;6.91;86.59
61478;BME280;47345;52.334;10.392;2024-03-02T06:46:37;99705.70;;;6.92;86.63
61478;BME280;47345;52.334;10.392;2024-03-02T06:49:07;99698.13;;;6.93;86.64
61478;BME280;47345;52.334;10.392;2024-03-02T06:51:39;99697.85;;;6.94;86.62
61478;BME280;47345;52.334;10.392;2024-03-02T06:54:11;99713.20;;;6.95;86.34
61478;BME280;47345;52.334;10.392;2024-03-02T06:56:42;99718.98;;;6.99;86.82
61478;BME280;47345;52.334;10.392;2024-03-02T06:59:12;99720.10;;;7.04;86.75
61478;BME280;47345;52.334;10.392;2024-03-02T07:01:42;99718.64;;;7.09;86.63
61478;BME280;47345;52.334;10.392;2024-03-02T07:04:13;99714.20;;;7.16;86.63
61478;BME280;47345;52.334;10.392;2024-03-02T07:06:43;99718.75;;;7.23;86.51
61478;BME280;47345;52.334;10.392;2024-03-02T07:09:14;99712.56;;;7.30;86.31
61478;BME280;47345;52.334;10.392;2024-03-02T07:11:44;99714.39;;;7.39;86.16
61478;BME280;47345;52.334;10.392;2024-03-02T07:14:19;99711.30;;;7.47;85.89
61478;BME280;47345;52.334;10.392;2024-03-02T07:16:49;99707.39;;;7.58;85.77
61478;BME280;47345;52.334;10.392;2024-03-02T07:19:20;99709.60;;;7.65;85.33
61478;BME280;47345;52.334;10.392;2024-03-02T07:21:50;99712.42;;;7.74;85.23
61478;BME280;47345;52.334;10.392;2024-03-02T07:24:21;99713.38;;;7.80;84.80
61478;BME280;47345;52.334;10.392;2024-03-02T07:26:52;99716.36;;;7.87;84.54
61478;BME280;47345;52.334;10.392;2024-03-02T07:29:23;99721.32;;;7.95;84.34
61478;BME280;47345;52.334;10.392;2024-03-02T07:31:54;99731.49;;;8.04;84.32
61478;BME280;47345;52.334;10.392;2024-03-02T07:34:24;99731.34;;;8.15;84.28
61478;BME280;47345;52.334;10.392;2024-03-02T07:36:55;99736.39;;;8.27;84.13
61478;BME280;47345;52.334;10.392;2024-03-02T07:39:25;99734.42;;;8.37;83.87
61478;BME280;47345;52.334;10.392;2024-03-02T07:41:56;99737.27;;;8.50;83.55
61478;BME280;47345;52.334;10.392;2024-03-02T07:44:27;99738.08;;;8.62;83.11
61478;BME280;47345;52.334;10.392;2024-03-02T07:46:58;99740.23;;;8.75;82.87
61478;BME280;47345;52.334;10.392;2024-03-02T07:49:29;99739.73;;;8.88;82.53
61478;BME280;47345;52.334;10.392;2024-03-02T07:51:59;99739.84;;;9.00;82.21
61478;BME280;47345;52.334;10.392;2024-03-02T07:54:30;99742.77;;;9.12;82.08
61478;BME280;47345;52.334;10.392;2024-03-02T07:57:01;99741.66;;;9.28;82.01
61478;BME280;47345;52.334;10.392;2024-03-02T07:59:31;99744.81;;;9.42;81.65
61478;BME280;47345;52.334;10.392;2024-03-02T08:02:02;99746.19;;;9.57;81.16
61478;BME280;47345;52.334;10.392;2024-03-02T08:04:32;99744.17;;;9.68;80.78
61478;BME280;47345;52.334;10.392;2024-03-02T08:07:04;99748.69;;;9.80;80.50
61478;BME280;47345;52.334;10.392;2024-03-02T08:09:34;99747.02;;;9.90;80.30
61478;BME280;47345;52.334;10.392;2024-03-02T08:12:06;99743.95;;;10.01;80.06
61478;BME280;47345;52.334;10.392;2024-03-02T08:14:37;99744.48;;;10.09;79.60
61478;BME280;47345;52.334;10.392;2024-03-02T08:17:08;99747.54;;;10.21;79.33
61478;BME280;47345;52.334;10.392;2024-03-02T08:19:40;99750.48;;;10.30;79.11
61478;BME280;47345;52.334;10.392;2024-03-02T08:22:11;99752.66;;;10.39;78.90
61478;BME280;47345;52.334;10.392;2024-03-02T08:24:42;99754.45;;;10.50;78.70
61478;BME280;47345;52.334;10.392;2024-03-02T08:27:12;99753.52;;;10.62;78.39
61478;BME280;47345;52.334;10.392;2024-03-02T08:29:43;99756.13;;;10.74;78.31
61478;BME280;47345;52.334;10.392;2024-03-02T08:32:14;99758.80;;;10.84;77.98
61478;BME280;47345;52.334;10.392;2024-03-02T08:34:46;99750.27;;;10.93;77.68
61478;BME280;47345;52.334;10.392;2024-03-02T08:37:16;99749.35;;;10.99;76.87
61478;BME280;47345;52.334;10.392;2024-03-02T08:39:47;99748.09;;;11.06;76.74
61478;BME280;47345;52.334;10.392;2024-03-02T08:42:18;99751.38;;;11.16;76.48
61478;BME280;47345;52.334;10.392;2024-03-02T08:44:48;99751.98;;;11.26;76.23
61478;BME280;47345;52.334;10.392;2024-03-02T08:47:19;99755.39;;;11.36;75.92
61478;BME280;47345;52.334;10.392;2024-03-02T08:49:50;99755.28;;;11.45;75.35
61478;BME280;47345;52.334;10.392;2024-03-02T08:52:22;99754.22;;;11.54;74.86
61478;BME280;47345;52.334;10.392;2024-03-02T08:54:53;99755.24;;;11.65;74.89
61478;BME280;47345;52.334;10.392;2024-03-02T08:57:23;99759.61;;;11.76;74.40
61478;BME280;47345;52.334;10.392;2024-03-02T08:59:54;99758.88;;;11.86;73.94
61478;BME280;47345;52.334;10.392;2024-03-02T09:02:26;99757.88;;;11.95;73.79
61478;BME280;47345;52.334;10.392;2024-03-02T09:04:57;99760.99;;;12.03;73.40
61478;BME280;47345;52.334;10.392;2024-03-02T09:07:28;99767.75;;;12.09;72.98
61478;BME280;47345;52.334;10.392;2024-03-02T09:09:58;99767.67;;;12.11;72.14
61478;BME280;47345;52.334;10.392;2024-03-02T09:12:29;99765.34;;;12.14;72.01
61478;BME280;47345;52.334;10.392;2024-03-02T09:15:00;99765.80;;;12.18;71.91
61478;BME280;47345;52.334;10.392;2024-03-02T09:17:32;99764.86;;;12.23;71.83
61478;BME280;47345;52.334;10.392;2024-03-02T09:20:03;99764.56;;;12.31;71.68
61478;BME280;47345;52.334;10.392;2024-03-02T09:22:34;99766.46;;;12.37;71.49
61478;BME280;47345;52.334;10.392;2024-03-02T09:25:05;99773.46;;;12.48;71.54
61478;BME280;47345;52.334;10.392;2024-03-02T09:27:39;99775.94;;;12.59;71.24
61478;BME280;47345;52.334;10.392;2024-03-02T09:30:11;99778.73;;;12.70;70.80
61478;BME280;47345;52.334;10.392;2024-03-02T09:32:42;99781.02;;;12.82;70.10
61478;BME280;47345;52.334;10.392;2024-03-02T09:35:15;99781.55;;;12.93;69.56
61478;BME280;47345;52.334;10.392;2024-03-02T09:37:46;99778.84;;;13.03;69.03
61478;BME280;47345;52.334;10.392;2024-03-02T09:40:18;99778.11;;;13.15;68.66
61478;BME280;47345;52.334;10.392;2024-03-02T09:42:52;99780.06;;;13.31;68.24
61478;BME280;47345;52.334;10.392;2024-03-02T09:45:25;99782.53;;;13.40;67.27
61478;BME280;47345;52.334;10.392;2024-03-02T09:47:56;99780.81;;;13.51;67.34
61478;BME280;47345;52.334;10.392;2024-03-02T09:50:26;99779.35;;;13.64;67.01
61478;BME280;47345;52.334;10.392;2024-03-02T09:52:57;99783.89;;;13.76;66.69
61478;BME280;47345;52.334;10.392;2024-03-02T09:55:29;99783.89;;;13.85;66.44
61478;BME280;47345;52.334;10.392;2024-03-02T09:58:00;99783.19;;;13.97;66.39
61478;BME280;47345;52.334;10.392;2024-03-02T10:00:30;99785.50;;;14.09;65.85
61478;BME280;47345;52.334;10.392;2024-03-02T10:03:01;99788.88;;;14.20;64.89
61478;BME280;47345;52.334;10.392;2024-03-02T10:05:34;99790.31;;;14.28;64.26
61478;BME280;47345;52.334;10.392;2024-03-02T10:08:05;99792.87;;;14.40;64.00
61478;BME280;47345;52.334;10.392;2024-03-02T10:10:40;99790.02;;;14.54;63.52
61478;BME280;47345;52.334;10.392;2024-03-02T10:13:13;99791.63;;;14.64;63.10
61478;BME280;47345;52.334;10.392;2024-03-02T10:15:44;99798.01;;;14.76;62.68
61478;BME280;47345;52.334;10.392;2024-03-02T10:18:27;99802.46;;;14.87;62.27
61478;BME280;47345;52.334;10.392;2024-03-02T10:21:14;99804.09;;;15.00;62.00
61478;BME280;47345;52.334;10.392;2024-03-02T10:23:44;99803.70;;;15.11;61.54
61478;BME280;47345;52.334;10.392;2024-03-02T10:26:19;99803.38;;;15.18;60.95
61478;BME280;47345;52.334;10.392;2024-03-02T10:28:49;99800.55;;;15.27;60.79
61478;BME280;47345;52.334;10.392;2024-03-02T10:31:28;99802.95;;;15.38;59.48
61478;BME280;47345;52.334;10.392;2024-03-02T10:33:58;99803.24;;;15.42;58.31
61478;BME280;47345;52.334;10.392;2024-03-02T10:36:29;99805.45;;;15.47;58.15
61478;BME280;47345;52.334;10.392;2024-03-02T10:39:00;99798.08;;;15.56;58.19
61478;BME280;47345;52.334;10.392;2024-03-02T10:41:34;99793.91;;;15.60;57.49
61478;BME280;47345;52.334;10.392;2024-03-02T10:44:06;99793.69;;;15.59;57.20
61478;BME280;47345;52.334;10.392;2024-03-02T10:46:37;99793.15;;;15.59;57.21
61478;BME280;47345;52.334;10.392;2024-03-02T10:49:08;99797.20;;;15.62;57.86
61478;BME280;47345;52.334;10.392;2024-03-02T10:51:38;99795.14;;;15.62;57.69
61478;BME280;47345;52.334;10.392;2024-03-02T10:54:09;99800.70;;;15.60;57.29
61478;BME280;47345;52.334;10.392;2024-03-02T10:56:41;99800.13;;;15.57;57.72
61478;BME280;47345;52.334;10.392;2024-03-02T10:59:24;99801.33;;;15.55;57.46
61478;BME280;47345;52.334;10.392;2024-03-02T11:01:59;99802.02;;;15.52;57.34
61478;BME280;47345;52.334;10.392;2024-03-02T11:04:36;99803.53;;;15.48;57.00
61478;BME280;47345;52.334;10.392;2024-03-02T11:07:08;99802.65;;;15.43;56.96
61478;BME280;47345;52.334;10.392;2024-03-02T11:09:42;99801.99;;;15.44;57.14
61478;BME280;47345;52.334;10.392;2024-03-02T11:12:24;99797.30;;;15.49;56.80
61478;BME280;47345;52.334;10.392;2024-03-02T11:14:59;99795.07;;;15.53;56.68
61478;BME280;47345;52.334;10.392;2024-03-02T11:17:30;99797.19;;;15.55;56.68
61478;BME280;47345;52.334;10.392;2024-03-02T11:20:01;99796.10;;;15.57;56.87
61478;BME280;47345;52.334;10.392;2024-03-02T11:22:33;99794.45;;;15.57;56.72
61478;BME280;47345;52.334;10.392;2024-03-02T11:25:06;99793.73;;;15.57;56.91
61478;BME280;47345;52.334;10.392;2024-03-02T11:28:06;99800.71;;;15.62;56.96
61478;BME280;47345;52.334;10.392;2024-03-02T11:30:54;99800.27;;;15.68;56.82
61478;BME280;47345;52.334;10.392;2024-03-02T11:33:26;99797.67;;;15.75;57.07
61478;BME280;47345;52.334;10.392;2024-03-02T11:35:59;99796.48;;;15.78;56.83
61478;BME280;47345;52.334;10.392;2024-03-02T11:38:32;99796.83;;;15.82;56.61
61478;BME280;47345;52.334;10.392;2024-03-02T11:41:05;99796.76;;;15.91;56.42
61478;BME280;47345;52.334;10.392;2024-03-02T11:43:40;99797.80;;;16.00;56.26
61478;BME280;47345;52.334;10.392;2024-03-02T11:46:13;99794.88;;;16.09;55.93
61478;BME280;47345;52.334;10.392;2024-03-02T11:48:47;99792.77;;;16.18;55.95
61478;BME280;47345;52.334;10.392;2024-03-02T11:51:18;99791.50;;;16.29;55.88
61478;BME280;47345;52.334;10.392;2024-03-02T11:53:49;99789.61;;;16.39;55.41
61478;BME280;47345;52.334;10.392;2024-03-02T11:56:20;99787.00;;;16.51;55.22
61478;BME280;47345;52.334;10.392;2024-03-02T11:58:54;99785.59;;;16.60;55.05
61478;BME280;47345;52.334;10.392;2024-03-02T12:01:25;99783.14;;;16.71;54.95
61478;BME280;47345;52.334;10.392;2024-03-02T12:03:56;99782.61;;;16.79;55.06
61478;BME280;47345;52.334;10.392;2024-03-02T12:06:29;99776.84;;;16.91;55.45
61478;BME280;47345;52.334;10.392;2024-03-02T12:09:00;99774.23;;;17.02;55.43
61478;BME280;47345;52.334;10.392;2024-03-02T12:11:30;99773.86;;;17.12;54.86
61478;BME280;47345;52.334;10.392;2024-03-02T12:14:01;99776.45;;;17.15;54.09
61478;BME280;47345;52.334;10.392;2024-03-02T12:16:33;99770.83;;;17.19;53.65
61478;BME280;47345;52.334;10.392;2024-03-02T12:19:07;99770.55;;;17.25;53.55
61478;BME280;47345;52.334;10.392;2024-03-02T12:21:37;99766.08;;;17.31;52.80
61478;BME280;47345;52.334;10.392;2024-03-02T12:24:08;99766.46;;;17.37;52.84
61478;BME280;47345;52.334;10.392;2024-03-02T12:26:39;99767.73;;;17.43;52.68
61478;BME280;47345;52.334;10.392;2024-03-02T12:29:10;99762.15;;;17.49;53.02
61478;BME280;47345;52.334;10.392;2024-03-02T12:31:42;99760.86;;;17.56;53.32
61478;BME280;47345;52.334;10.392;2024-03-02T12:34:15;99756.36;;;17.63;53.21
61478;BME280;47345;52.334;10.392;2024-03-02T12:36:47;99755.04;;;17.66;52.04
61478;BME280;47345;52.334;10.392;2024-03-02T12:39:21;99755.05;;;17.66;51.37
61478;BME280;47345;52.334;10.392;2024-03-02T12:41:52;99755.58;;;17.74;50.93
61478;BME280;47345;52.334;10.392;2024-03-02T12:44:23;99754.63;;;17.80;50.18
61478;BME280;47345;52.334;10.392;2024-03-02T12:46:54;99749.32;;;17.79;49.46
61478;BME280;47345;52.334;10.392;2024-03-02T12:49:30;99748.05;;;17.76;49.46
61478;BME280;47345;52.334;10.392;2024-03-02T12:52:01;99746.06;;;17.78;49.80
61478;BME280;47345;52.334;10.392;2024-03-02T12:54:34;99746.71;;;17.83;49.82
61478;BME280;47345;52.334;10.392;2024-03-02T12:57:05;99744.16;;;17.86;49.23
61478;BME280;47345;52.334;10.392;2024-03-02T12:59:35;99744.37;;;17.90;48.31
61478;BME280;47345;52.334;10.392;2024-03-02T13:02:06;99734.05;;;17.97;47.31
61478;BME280;47345;52.334;10.392;2024-03-02T13:04:39;99736.05;;;17.96;46.51
61478;BME280;47345;52.334;10.392;2024-03-02T13:07:11;99735.27;;;17.93;46.03
61478;BME280;47345;52.334;10.392;2024-03-02T13:09:42;99732.19;;;17.94;46.41
61478;BME280;47345;52.334;10.392;2024-03-02T13:12:13;99731.19;;;17.94;46.16
61478;BME280;47345;52.334;10.392;2024-03-02T13:14:47;99730.16;;;17.86;45.56
61478;BME280;47345;52.334;10.392;2024-03-02T13:17:19;99733.88;;;17.76;45.55
61478;BME280;47345;52.334;10.392;2024-03-02T13:19:56;99737.95;;;17.66;46.21